Weather at Warrington Field

Public forecast

Using degrees Fahrenheit for public forecast. Weather courtesy of forecast.io.

Closest aviation weather report (METAR) to Warrington Field

Closest report is Ocean City Municipal Airport, 9.4 nm (17.5 km) SSE. Retrieved 2021/06/25 02:53 UTC (54 minutes ago):

KOXB 250253Z AUTO 05005KT 10SM FEW019 19/16 A3031 RMK AO2 SLP262 T01890161 50001

Closest aviation forecast (TAF) to Warrington Field

Closest forecast is Salisbury Ocean City Wicomico Regional Airport, 17.4 nm (32.2 km) WSW. Retrieved 2021-06-25 00:30 UTC (3 hours ago):

TAF KSBY 242329Z 2500/2524 07005KT P6SM SCT035 FM250500 00000KT P6SM SCT025 BKN040 FM250800 00000KT 4SM BR BKN015 FM251100 10005KT P6SM BKN025 FM251800 15008KT P6SM SCT025 BKN040